Latest Coastal Weather Observations for Horn Island

IDQ60701

Issued at 7:55 pm EST Wednesday 26 November 2014 (issued every 10 minutes, with the page automatically refreshed every 10 minutes)

About coastal observations | Map of coastal stations | Coastal observations for QLD | Marine services | Other Formats
Station Details ID: 027058 Name: HORN ISLAND Lat: -10.58 Lon: 142.29 Height: 4.0 m
Data from the previous 72 hours. | See also: Recent months at Horn Island
Date/Time
EST
Temp

°C
Wind Pressure Rain
since 9am
mm
Weather Cloud Vis
km
Sea
Height
m
Swell
Dir
 
Speed
knots
Gust
knots
hPa Trend Height
m
Period
s
Dir
26/07:30pm 28.1 ESE 13 19 1007.5 - 0.0 - - 10 - - - -
26/07:00pm 28.2 ESE 14 19 1007.0 - 0.0 - Partly cloudy 10 - - - -
26/06:30pm 28.6 ESE 13 19 1006.5 - 0.0 - Partly cloudy 10 - - - -
26/06:00pm 29.0 ESE 16 20 1006.3 - 0.0 - Mostly clear 10 - - - -
26/05:30pm 29.5 ESE 14 21 1006.3 - 0.0 - - 10 - - - -
26/05:00pm 30.1 ESE 16 22 1006.0 - 0.0 - Partly cloudy 10 - - - -
26/04:30pm 30.1 ESE 16 23 1005.9 - 0.0 - Partly cloudy 10 - - - -
26/04:00pm 30.4 ESE 17 22 1005.9 - 0.0 - Partly cloudy 10 - - - -
26/03:30pm 30.3 ESE 15 22 1006.0 - 0.0 - Partly cloudy 10 - - - -
26/03:00pm 30.7 E 18 23 1006.2 - 0.0 - Partly cloudy 10 - - - -
26/02:30pm 30.8 E 16 24 1006.5 - 0.0 - - 10 - - - -
26/02:00pm 31.4 E 18 23 1006.8 - 0.0 - - 10 - - - -
26/01:30pm 30.7 E 17 23 1007.2 - 0.0 - - 10 - - - -
26/01:00pm 31.7 ESE 18 23 1007.5 - 0.0 - Partly cloudy 10 - - - -
26/12:30pm 31.0 ESE 17 23 1007.7 - 0.0 - Partly cloudy 10 - - - -
26/12:00pm 31.0 E 18 24 1008.0 - 0.0 - Mostly clear 10 - - - -
26/11:30am 31.6 ESE 17 23 1008.3 - 0.0 - Partly cloudy 10 - - - -
26/11:00am 31.7 E 17 24 1008.6 - 0.0 - Partly cloudy 10 - - - -
26/10:30am 30.5 ESE 17 22 1008.8 - 0.0 - Partly cloudy 10 - - - -
26/10:00am 30.5 ESE 14 20 1009.1 - 0.0 - Partly cloudy 10 - - - -
26/09:30am 30.4 E 15 20 1009.3 - 0.0 - Partly cloudy 10 - - - -
26/09:00am 29.5 E 14 20 1009.2 - 0.0 - Cloudy 10 - - - -
26/08:30am 28.9 E 14 19 1008.9 - 0.0 - Partly cloudy 10 - - - -
26/08:00am 29.4 E 14 20 1008.4 - 0.0 - - 10 - - - -
26/07:30am 28.5 ESE 15 21 1008.0 - 0.0 - Partly cloudy 10 - - - -
26/07:00am 28.2 ESE 11 19 1008.0 - 0.0 - Partly cloudy 10 - - - -
26/06:30am 27.7 ESE 11 16 1007.8 - 0.0 - Partly cloudy 10 - - - -
26/06:00am 27.5 ESE 10 14 1007.5 - 0.0 - Mostly cloudy 10 - - - -
26/05:30am 27.5 ESE 10 13 1007.4 - 0.0 - Partly cloudy 10 - - - -
26/05:00am 27.4 ESE 11 14 1007.0 - 0.0 - Partly cloudy 10 - - - -
26/04:30am 27.4 ESE 13 17 1006.5 - 0.0 - Partly cloudy 10 - - - -
26/04:00am 27.4 ESE 13 20 1006.2 - 0.0 - Partly cloudy 10 - - - -
26/03:30am 27.5 ESE 15 20 1006.3 - 0.0 - Partly cloudy 10 - - - -
26/03:00am 27.6 ESE 15 20 1006.3 - 0.0 - Cloudy 10 - - - -
26/02:30am 27.6 ESE 14 19 1006.4 - 0.0 - Partly cloudy 10 - - - -
26/02:00am 27.7 ESE 15 18 1006.9 - 0.0 - Partly cloudy 10 - - - -
26/01:30am 27.6 ESE 14 20 1007.1 - 0.0 - Partly cloudy 10 - - - -
26/01:00am 27.7 ESE 15 20 1007.5 - 0.0 - Partly cloudy 10 - - - -
26/12:30am 27.6 ESE 15 21 1008.0 - 0.0 - Partly cloudy 10 - - - -
26/12:00am 27.7 E 13 18 1008.3 - 0.0 - Partly cloudy 10 - - - -
 
Date/Time
EST
Temp

°C
Wind Pressure Rain
since 9am
mm
Weather Cloud Vis
km
Sea
Height
m
Swell
Dir
 
Speed
knots
Gust
knots
hPa Trend Height
m
Period
s
Dir
25/11:30pm 27.7 ESE 14 23 1008.6 - 0.0 - Partly cloudy 10 - - - -
25/11:00pm 27.9 ESE 15 21 1008.8 - 0.0 - Partly cloudy 10 - - - -
25/10:30pm 27.7 ESE 15 21 1008.7 - 0.0 - Partly cloudy 10 - - - -
25/10:00pm 27.7 ESE 16 20 1008.5 - 0.0 - Partly cloudy 10 - - - -
25/09:30pm 27.7 ESE 15 21 1008.3 - 0.0 - Partly cloudy 10 - - - -
25/09:00pm 27.6 ESE 15 21 1008.1 - 0.0 - Mostly clear 10 - - - -
25/08:30pm 27.6 ESE 15 21 1007.8 - 0.0 - Partly cloudy 10 - - - -
25/08:00pm 27.8 ESE 14 20 1007.4 - 0.0 - - 10 - - - -
25/07:30pm 27.9 ESE 14 19 1007.3 - 0.0 - - 10 - - - -
25/07:00pm 28.1 ESE 15 20 1007.0 - 0.0 - - 10 - - - -
25/06:30pm 28.4 ESE 13 19 1006.8 - 0.0 - - 10 - - - -
25/06:00pm 29.1 ESE 13 17 1006.9 - 0.0 - - 10 - - - -
25/05:30pm 29.6 ESE 14 20 1006.8 - 0.0 - - 10 - - - -
25/05:00pm 29.5 ESE 14 20 1006.8 - 0.0 - - 10 - - - -
25/04:30pm 29.6 ESE 14 21 1006.6 - 0.0 - - 10 - - - -
25/04:00pm 30.7 E 18 24 1006.5 - 0.0 - - 10 - - - -
25/03:30pm 31.0 ESE 18 23 1006.6 - 0.0 - - 10 - - - -
25/03:00pm 30.9 ESE 17 22 1006.9 - 0.0 - - 10 - - - -
25/02:30pm 30.9 ESE 16 22 1007.2 - 0.0 - - 10 - - - -
25/02:00pm 31.1 E 17 23 1007.6 - 0.0 - - 10 - - - -
25/01:30pm 31.0 E 17 23 1007.8 - 0.0 - - 10 - - - -
25/01:00pm 31.2 E 18 25 1008.3 - 0.0 - - 10 - - - -
25/12:30pm 30.9 ESE 20 27 1008.7 - 0.0 - - 10 - - - -
25/12:00pm 31.7 E 17 23 1008.7 - 0.0 - - 10 - - - -
25/11:30am 31.4 E 16 22 1009.0 - 0.0 - - 10 - - - -
25/11:00am 31.3 ESE 18 23 1009.3 - 0.0 - - 10 - - - -
25/10:30am 30.6 E 17 24 1009.4 - 0.0 - Partly cloudy 10 - - - -
25/10:00am 30.5 E 17 23 1009.6 - 0.0 - - 10 - - - -
25/09:30am 30.0 ESE 16 21 1009.7 - 0.0 - Partly cloudy 10 - - - -
25/09:00am 29.9 ESE 13 17 1009.5 - 0.0 - - 10 - - - -
25/08:30am 29.4 ESE 13 18 1009.5 - 0.0 - Partly cloudy 10 - - - -
25/08:00am 28.6 ESE 12 16 1009.2 - 0.0 - Partly cloudy 10 - - - -
25/07:30am 28.2 SE 10 13 1008.9 - 0.0 - Partly cloudy 10 - - - -
25/07:00am 27.8 ESE 11 16 1008.7 - 0.0 - Partly cloudy 10 - - - -
25/06:30am 26.8 ESE 9 11 1008.5 - 0.0 - - 10 - - - -
25/06:00am 26.5 SE 9 13 1008.2 - 0.0 - - 10 - - - -
25/05:30am 26.6 ESE 10 14 1008.0 - 0.0 - - 10 - - - -
25/05:00am 26.6 ESE 10 14 1007.7 - 0.0 - - 10 - - - -
25/04:30am 26.8 ESE 11 16 1007.8 - 0.0 - Partly cloudy 10 - - - -
25/04:00am 26.9 ESE 11 16 1007.9 - 0.0 - - 10 - - - -
25/03:30am 26.8 ESE 12 18 1008.1 - 0.0 - - 10 - - - -
25/03:00am 26.9 SE 10 14 1008.4 - 0.0 - - 10 - - - -
25/02:30am 26.9 ESE 10 16 1008.6 - 0.0 - - 10 - - - -
25/02:00am 26.8 ESE 9 14 1008.9 - 0.0 - Partly cloudy 10 - - - -
25/01:30am 26.9 ESE 10 14 1009.1 - 0.0 - - 10 - - - -
25/01:00am 27.0 SE 11 15 1009.1 - 0.0 - Partly cloudy 10 - - - -
25/12:30am 27.1 ESE 12 16 1009.3 - 0.0 - - 10 - - - -
25/12:00am 27.2 ESE 11 16 1009.8 - 0.0 - - 10 - - - -
 
Date/Time
EST
Temp

°C
Wind Pressure Rain
since 9am
mm
Weather Cloud Vis
km
Sea
Height
m
Swell
Dir
 
Speed
knots
Gust
knots
hPa Trend Height
m
Period
s
Dir
24/11:30pm 27.3 ESE 12 18 1010.1 - 0.0 - Partly cloudy 10 - - - -
24/11:00pm 27.4 ESE 13 18 1010.1 - 0.0 - Partly cloudy 10 - - - -
24/10:30pm 27.4 ESE 13 20 1009.8 - 0.0 - Partly cloudy 10 - - - -
24/10:00pm 27.4 ESE 15 21 1009.4 - 0.0 - Partly cloudy 10 - - - -
24/09:30pm 27.5 ESE 13 18 1009.0 - 0.0 - - 10 - - - -
24/09:00pm 27.5 ESE 13 19 1008.7 - 0.0 - Mostly clear 10 - - - -
24/08:30pm 27.6 ESE 14 17 1008.8 - 0.0 - Partly cloudy 10 - - - -
24/08:00pm 27.6 ESE 15 20 1008.7 - 0.0 - - 10 - - - -
24/07:30pm 27.7 ESE 14 18 1008.7 - 0.0 - - 10 - - - -
24/07:00pm 27.8 ESE 13 19 1008.3 - 0.0 - - 10 - - - -
24/06:30pm 28.2 ESE 15 21 1007.9 - 0.0 - - 10 - - - -
24/06:00pm 29.1 ESE 13 18 1007.6 - 0.0 - - 10 - - - -
24/05:30pm 29.1 ESE 15 20 1007.6 - 0.0 - - 10 - - - -
24/05:00pm 29.5 ESE 16 21 1007.5 - 0.0 - - 10 - - - -
24/04:30pm 30.0 ESE 16 22 1007.5 - 0.0 - - 10 - - - -
24/04:00pm 30.3 E 16 21 1007.6 - 0.0 - - 10 - - - -
24/03:30pm 30.5 ESE 17 23 1007.7 - 0.0 - - 10 - - - -
24/03:00pm 30.4 E 17 22 1007.9 - 0.0 - - 10 - - - -
24/02:30pm 30.5 E 17 22 1008.1 - 0.0 - - 10 - - - -
24/02:00pm 30.2 E 15 21 1008.6 - 0.0 - - 10 - - - -
24/01:30pm 30.7 E 16 22 1009.0 - 0.0 - - 10 - - - -
24/01:00pm 30.3 E 16 21 1009.3 - 0.0 - - 10 - - - -
24/12:30pm 29.9 E 17 23 1009.8 - 0.0 - - 10 - - - -
24/12:00pm 30.3 ESE 15 20 1010.1 - 0.0 - - 10 - - - -
24/11:30am 30.4 ESE 17 22 1010.6 - 0.0 - - 10 - - - -
24/11:00am 30.0 E 15 21 1010.8 - 0.0 - - 10 - - - -
24/10:30am 30.4 E 13 18 1011.1 - 0.0 - - 10 - - - -
24/10:00am 29.9 E 14 19 1011.3 - 0.0 - Partly cloudy 10 - - - -
24/09:30am 29.4 ESE 14 20 1011.5 - 0.0 - Partly cloudy 10 - - - -
24/09:00am 28.9 E 13 16 1011.4 - 0.0 - Mostly clear 10 - - - -
24/08:30am 28.2 ESE 8 11 1011.1 - 0.0 - Partly cloudy 10 - - - -
24/08:00am 27.4 SSE 7 11 1011.1 - 0.0 - Partly cloudy 10 - - - -
24/07:30am 27.2 SSE 7 10 1010.5 - 0.0 - Partly cloudy 10 - - - -
24/07:00am 27.2 SE 6 9 1010.1 - 0.0 - Partly cloudy 10 - - - -
24/06:30am 26.7 SE 8 11 1009.8 - 0.0 - Partly cloudy 10 - - - -
24/06:00am 26.6 SE 7 10 1009.5 - 0.0 - Partly cloudy 10 - - - -
24/05:30am 26.5 SE 8 10 1009.3 - 0.0 - Partly cloudy 10 - - - -
24/05:00am 26.5 ESE 8 11 1009.1 - 0.0 - Partly cloudy 10 - - - -
24/04:30am 26.6 ESE 8 10 1008.9 - 0.0 - Partly cloudy 10 - - - -
24/04:00am 26.9 ESE 10 15 1008.6 - 0.0 - Partly cloudy 10 - - - -
24/03:30am 26.7 ESE 10 14 1008.8 - 0.0 - Partly cloudy 10 - - - -
24/03:00am 26.8 E 12 16 1008.8 - 0.0 - Mostly clear 10 - - - -
24/02:30am 26.9 E 11 16 1009.0 - 0.0 - Partly cloudy 10 - - - -
24/02:00am 26.9 E 13 19 1009.4 - 0.0 - Partly cloudy 10 - - - -
24/01:30am 26.9 ESE 11 17 1009.8 - 0.0 - Partly cloudy 10 - - - -
24/01:00am 26.9 E 13 19 1010.0 - 0.0 - Partly cloudy 10 - - - -
24/12:30am 27.1 E 14 17 1010.7 - 0.0 - Partly cloudy 10 - - - -
24/12:00am 27.2 E 13 17 1011.1 - 0.0 - Mostly cloudy 10 - - - -
 
Date/Time
EST
Temp

°C
Wind Pressure Rain
since 9am
mm
Weather Cloud Vis
km
Sea
Height
m
Swell
Dir
 
Speed
knots
Gust
knots
hPa Trend Height
m
Period
s
Dir
23/11:30pm 27.2 E 15 20 1011.4 - 0.0 - Partly cloudy 10 - - - -
23/11:00pm 27.2 E 13 18 1011.5 - 0.0 - Partly cloudy 10 - - - -
23/10:30pm 27.3 E 14 20 1011.9 - 0.0 - Partly cloudy 10 - - - -
23/10:00pm 27.4 E 14 19 1011.7 - 0.0 - Partly cloudy 10 - - - -
23/09:30pm 27.5 E 13 19 1011.5 - 0.0 - Partly cloudy 10 - - - -
23/09:00pm 27.5 E 14 20 1011.4 - 0.0 - Mostly clear 10 - - - -
23/08:30pm 27.6 ESE 14 19 1010.9 - 0.0 - Partly cloudy 10 - - - -
23/08:00pm 27.6 ESE 12 18 1010.3 - 0.0 - Partly cloudy 10 - - - -

Other Formats:

Comma delimited format used in spreadsheet applications
http://www.bom.gov.au/fwo/IDQ60701/IDQ60701.94174.axf

JavaScript Object Notation format (JSON) in row-major order
http://www.bom.gov.au/fwo/IDQ60701/IDQ60701.94174.json